Broughton, Illinois
Current Conditions -  °F | °C
As of 3:15 AM on Thursday 27 Nov 2014 (Local Time) from KHSB Reporting Station
Overcast Overcast  
Wind Chill: 25°   Ceiling: 2500
Heat Index: 32°   Visibility: 7mi
Dew Point: 32°   Wind: 8mph
Humidity: 99%   Direction: 340°NNW
Pressure: 30.27"   Gusts: NA
Location:  37.93°N, 88.46°W
Report Text: KHSB 270915Z AUTO 34007KT 7SM OVC025 00/00 A3027 RMK AO2 T00010000
Loading
Personal Weather Stations






























Interactive Weather Map New forecast layout! Learn more

10-Day Weather Forecast

Advertisements
Track Severe Weather on mobile